Time;durP1;ratioP1;P1;durP2;ratioP2;P2;SDS_P1;SDS_P2;PMS_P1;PMS_P2;Temp;Humidity;BMP_temperature;BMP_pressure;BME280_temperature;BME280_humidity;BME280_pressure;Samples;Min_cycle;Max_cycle;Signal;HPM_P1;HPM_P2
2022/02/03 00:02:32;;;;;;;7.57;6.97;;;8.90;99.90;;;;;;10497798;28;20220;-79
2022/02/03 00:07:45;;;;;;;8.27;7.57;;;8.90;99.90;;;;;;10499376;28;20287;-79
2022/02/03 00:24:06;;;;;;;8.73;8.03;;;8.90;99.90;;;;;;10483435;28;20243;-79
2022/02/03 00:29:23;;;;;;;8.90;8.10;;;8.90;99.90;;;;;;10465869;28;20248;-78
2022/02/03 00:34:35;;;;;;;9.03;8.30;;;8.90;99.90;;;;;;10448939;28;20188;-78
2022/02/03 00:50:25;;;;;;;9.53;8.53;;;8.90;99.90;;;;;;10510352;28;20217;-79
2022/02/03 00:55:28;;;;;;;9.30;8.50;;;8.90;99.90;;;;;;10511302;28;20661;-80
2022/02/03 01:00:35;;;;;;;8.97;8.17;;;8.90;99.90;;;;;;10503183;28;20580;-79
2022/02/03 01:05:39;;;;;;;9.60;8.80;;;8.90;99.90;;;;;;10505152;28;20263;-80
2022/02/03 01:10:48;;;;;;;10.70;9.20;;;8.90;99.90;;;;;;10525225;28;20228;-80
2022/02/03 01:16:00;;;;;;;9.67;8.87;;;8.90;99.90;;;;;;10503797;28;20357;-80
2022/02/03 01:37:23;;;;;;;8.23;7.53;;;8.90;99.90;;;;;;10476624;28;20193;-80
2022/02/03 01:48:06;;;;;;;8.00;7.40;;;8.90;99.90;;;;;;10499417;28;20200;-80
2022/02/03 01:53:10;;;;;;;7.73;7.10;;;8.90;99.90;;;;;;10479170;28;20653;-79
2022/02/03 01:58:14;;;;;;;8.80;8.10;;;8.90;99.90;;;;;;10496656;28;20291;-80
2022/02/03 02:03:22;;;;;;;7.17;6.67;;;8.90;99.90;;;;;;10522987;22;20233;-77
2022/02/03 02:08:37;;;;;;;8.93;8.20;;;8.90;99.90;;;;;;10522926;28;20192;-75
2022/02/03 02:14:09;;;;;;;7.03;6.53;;;8.90;99.90;;;;;;10501084;28;20598;-76
2022/02/03 02:19:23;;;;;;;15.73;8.10;;;8.80;99.90;;;;;;10488609;28;20663;-77
2022/02/03 02:46:06;;;;;;;7.73;7.13;;;8.80;99.90;;;;;;10460741;28;20235;-76
2022/02/03 02:51:12;;;;;;;7.80;7.20;;;8.80;99.90;;;;;;10482635;28;20635;-77
2022/02/03 02:56:23;;;;;;;9.10;8.30;;;8.80;99.90;;;;;;10473917;28;20279;-77
2022/02/03 03:33:51;;;;;;;7.53;7.03;;;8.80;99.90;;;;;;10487634;28;20205;-76
2022/02/03 03:38:56;;;;;;;7.50;6.90;;;8.80;99.90;;;;;;10484581;28;20223;-75
2022/02/03 03:44:03;;;;;;;7.20;6.60;;;8.80;99.90;;;;;;10491019;28;20216;-75
2022/02/03 03:49:10;;;;;;;7.37;6.87;;;8.80;99.90;;;;;;10492443;28;20617;-75
2022/02/03 03:54:26;;;;;;;7.63;7.03;;;8.80;99.90;;;;;;10485560;28;20225;-75
2022/02/03 04:00:07;;;;;;;8.03;7.33;;;8.90;99.90;;;;;;10489662;28;20200;-76
2022/02/03 05:05:41;;;;;;;7.33;6.73;;;8.80;99.90;;;;;;10497816;28;20213;-76
2022/02/03 05:11:22;;;;;;;7.00;6.40;;;8.80;99.90;;;;;;10506367;28;20224;-76
2022/02/03 05:16:58;;;;;;;7.60;7.00;;;8.80;99.90;;;;;;10491604;28;20197;-76
2022/02/03 05:45:51;;;;;;;7.63;6.97;;;8.70;99.90;;;;;;10498045;28;20221;-77
2022/02/03 05:51:16;;;;;;;7.77;7.10;;;8.60;99.90;;;;;;10495356;28;20224;-77
2022/02/03 06:23:29;;;;;;;7.57;6.97;;;8.10;99.90;;;;;;10492606;28;20216;-76
2022/02/03 06:28:33;;;;;;;13.73;12.43;;;8.20;99.90;;;;;;10491592;28;20223;-76
2022/02/03 06:33:35;;;;;;;13.40;12.23;;;8.20;99.90;;;;;;10489111;28;20225;-77
2022/02/03 06:38:37;;;;;;;9.60;8.80;;;8.20;99.90;;;;;;10489921;28;20196;-76
2022/02/03 06:43:42;;;;;;;8.97;8.17;;;8.20;99.90;;;;;;10473541;28;20669;-76
2022/02/03 06:48:52;;;;;;;10.97;10.03;;;8.30;99.90;;;;;;10488086;28;20699;-77
2022/02/03 06:54:00;;;;;;;12.40;11.30;;;8.40;99.90;;;;;;10487378;28;20235;-77
2022/02/03 06:59:08;;;;;;;12.53;11.33;;;8.50;99.90;;;;;;10487473;28;20197;-77
2022/02/03 07:04:18;;;;;;;9.90;9.10;;;8.50;99.90;;;;;;10487958;28;20224;-76
2022/02/03 07:09:20;;;;;;;9.50;8.60;;;8.60;99.90;;;;;;10488305;28;20220;-77
2022/02/03 07:14:29;;;;;;;8.40;7.70;;;8.60;99.90;;;;;;10487855;28;20274;-77
2022/02/03 07:19:34;;;;;;;8.87;8.17;;;8.70;99.90;;;;;;10484201;28;20202;-77
2022/02/03 07:24:36;;;;;;;8.60;7.87;;;8.80;99.90;;;;;;10460466;28;20233;-77
2022/02/03 07:29:39;;;;;;;9.57;8.67;;;8.90;99.90;;;;;;10459976;28;20711;-77
2022/02/03 07:34:41;;;;;;;9.70;8.77;;;9.00;99.90;;;;;;10459864;28;20221;-77
2022/02/03 07:39:44;;;;;;;9.80;8.93;;;9.10;99.90;;;;;;10458345;28;20219;-76
2022/02/03 07:44:48;;;;;;;9.50;8.70;;;9.20;99.90;;;;;;10457078;28;20229;-77
2022/02/03 07:49:50;;;;;;;8.50;7.80;;;9.20;99.90;;;;;;10458476;28;20634;-77
2022/02/03 07:54:52;;;;;;;9.50;8.77;;;9.30;99.90;;;;;;10458024;28;20235;-76
2022/02/03 07:59:56;;;;;;;8.60;7.90;;;9.30;99.90;;;;;;10457109;28;20677;-76
2022/02/03 08:05:01;;;;;;;8.57;7.90;;;9.40;99.90;;;;;;10444513;22;20678;-79
2022/02/03 08:10:16;;;;;;;7.10;6.60;;;9.40;99.90;;;;;;10427149;28;20279;-79
2022/02/03 08:15:22;;;;;;;7.60;7.00;;;9.50;99.90;;;;;;10428841;28;20736;-81
2022/02/03 08:20:24;;;;;;;8.23;7.43;;;9.60;99.90;;;;;;10426140;28;20571;-81
2022/02/03 08:25:29;;;;;;;7.30;6.70;;;9.60;99.90;;;;;;10420521;28;20202;-80
2022/02/03 08:30:38;;;;;;;6.90;6.30;;;9.60;99.90;;;;;;10417028;28;20796;-80
2022/02/03 08:35:42;;;;;;;6.93;6.40;;;9.70;99.90;;;;;;10413948;28;20213;-79
2022/02/03 08:40:57;;;;;;;6.30;5.80;;;9.80;99.90;;;;;;10420160;28;20605;-82
2022/02/03 08:46:02;;;;;;;5.93;5.53;;;9.90;99.90;;;;;;10403527;28;20202;-82
2022/02/03 08:51:07;;;;;;;5.77;5.30;;;10.00;99.90;;;;;;10423685;28;20217;-81
2022/02/03 08:56:21;;;;;;;6.47;5.97;;;10.10;99.90;;;;;;10416970;28;20194;-81
2022/02/03 09:39:09;;;;;;;4.30;4.10;;;10.40;99.90;;;;;;10361034;28;20450;-81
2022/02/03 10:00:39;;;;;;;4.23;3.97;;;10.50;99.90;;;;;;10409139;28;20224;-79
2022/02/03 10:05:58;;;;;;;3.90;3.60;;;10.60;99.90;;;;;;10411900;28;20206;-80
2022/02/03 10:11:18;;;;;;;3.57;3.37;;;10.60;99.90;;;;;;10431530;28;20312;-82
2022/02/03 10:16:22;;;;;;;3.60;3.40;;;10.60;99.90;;;;;;10413288;28;20204;-82
2022/02/03 10:21:25;;;;;;;3.30;3.10;;;10.70;99.90;;;;;;10417069;28;20221;-82
2022/02/03 10:26:38;;;;;;;2.70;2.50;;;10.70;99.90;;;;;;10419887;28;20665;-80
2022/02/03 10:31:42;;;;;;;3.00;2.80;;;10.80;99.90;;;;;;10414648;28;20280;-82
2022/02/03 10:36:54;;;;;;;2.60;2.40;;;10.80;99.90;;;;;;10423764;28;20221;-81
2022/02/03 10:42:07;;;;;;;3.17;2.97;;;10.80;99.90;;;;;;10421406;28;20220;-82
2022/02/03 10:47:52;;;;;;;2.30;2.20;;;10.80;99.90;;;;;;10417072;28;20202;-82
2022/02/03 10:53:15;;;;;;;2.53;2.33;;;10.90;99.90;;;;;;10415660;28;20609;-81
2022/02/03 11:03:58;;;;;;;2.40;2.30;;;10.90;99.90;;;;;;10426625;28;20225;-82
2022/02/03 11:09:12;;;;;;;2.07;1.97;;;10.90;99.90;;;;;;10428531;28;20229;-79
2022/02/03 11:14:16;;;;;;;2.23;2.13;;;10.90;99.90;;;;;;10445248;28;20697;-82
2022/02/03 11:19:24;;;;;;;2.00;1.90;;;10.90;99.90;;;;;;10420878;28;20255;-80
2022/02/03 11:24:31;;;;;;;2.33;2.23;;;11.10;99.90;;;;;;10415183;28;20220;-81
2022/02/03 11:30:17;;;;;;;3.90;2.40;;;11.10;99.90;;;;;;10427818;28;20494;-82
2022/02/03 11:41:32;;;;;;;2.20;2.10;;;11.10;99.90;;;;;;10425118;28;20297;-80
2022/02/03 11:46:50;;;;;;;1.90;1.80;;;11.20;99.90;;;;;;10426676;28;20206;-81
2022/02/03 11:52:12;;;;;;;2.50;2.40;;;11.30;99.90;;;;;;10420966;28;20240;-82
2022/02/03 12:14:24;;;;;;;2.70;2.60;;;11.40;99.90;;;;;;10396649;28;20681;-81
2022/02/03 12:19:36;;;;;;;2.90;2.70;;;11.40;99.90;;;;;;10422830;28;20221;-82
2022/02/03 12:24:52;;;;;;;2.80;2.60;;;11.50;99.90;;;;;;10449379;28;20253;-82
2022/02/03 12:30:03;;;;;;;2.13;2.03;;;11.50;99.90;;;;;;10420062;28;20214;-82
2022/02/03 12:40:31;;;;;;;3.00;2.80;;;11.50;99.90;;;;;;10394296;28;20221;-81
2022/02/03 12:45:39;;;;;;;2.60;2.40;;;11.60;99.90;;;;;;10418730;28;20747;-81
2022/02/03 12:50:42;;;;;;;6.80;3.10;;;11.60;99.90;;;;;;10422306;28;20260;-79
2022/02/03 12:55:45;;;;;;;2.43;2.33;;;11.60;99.90;;;;;;10416100;28;20666;-78
2022/02/03 13:00:55;;;;;;;3.53;2.27;;;11.70;99.90;;;;;;10427790;28;20237;-78
2022/02/03 13:06:00;;;;;;;2.20;2.10;;;11.80;99.90;;;;;;10408410;28;20265;-78
2022/02/03 13:11:06;;;;;;;2.47;2.37;;;11.70;99.90;;;;;;10406091;28;20709;-78
2022/02/03 13:16:11;;;;;;;3.43;2.40;;;11.70;99.90;;;;;;10393341;28;20197;-79
2022/02/03 13:21:34;;;;;;;2.40;2.30;;;11.70;99.90;;;;;;10423561;28;20600;-78
2022/02/03 13:26:37;;;;;;;1.63;1.53;;;11.60;99.90;;;;;;10432929;28;20688;-80
2022/02/03 13:31:49;;;;;;;2.13;2.03;;;11.60;99.90;;;;;;10420925;28;20236;-81
2022/02/03 13:36:59;;;;;;;2.40;2.30;;;11.60;99.90;;;;;;10426818;28;20281;-81
2022/02/03 13:42:03;;;;;;;4.63;2.40;;;11.60;99.90;;;;;;10423401;28;20218;-81
2022/02/03 13:52:40;;;;;;;2.37;2.20;;;11.60;99.90;;;;;;10568168;27;20566;-79
2022/02/03 14:14:27;;;;;;;2.30;2.10;;;11.50;99.90;;;;;;10396856;28;20579;-80
2022/02/03 14:30:16;;;;;;;4.70;4.10;;;11.60;99.90;;;;;;10349960;28;20218;-80
2022/02/03 14:35:18;;;;;;;3.83;3.30;;;11.50;99.90;;;;;;10382859;28;20227;-82
2022/02/03 14:40:38;;;;;;;2.63;2.53;;;11.50;99.90;;;;;;10376316;28;20203;-81
2022/02/03 14:45:40;;;;;;;2.80;2.60;;;11.50;99.90;;;;;;10371859;28;20199;-81
2022/02/03 14:50:42;;;;;;;2.60;2.40;;;11.50;99.90;;;;;;10384562;28;20248;-80
2022/02/03 15:01:06;;;;;;;3.00;2.80;;;11.40;99.90;;;;;;10368888;28;20222;-81
2022/02/03 15:06:11;;;;;;;2.77;2.57;;;11.30;99.90;;;;;;10351429;28;20563;-81
2022/02/03 15:11:24;;;;;;;3.00;2.80;;;11.30;99.90;;;;;;10347859;28;20687;-80
2022/02/03 15:16:27;;;;;;;3.20;2.90;;;11.20;99.90;;;;;;10356934;28;20211;-81
2022/02/03 15:21:29;;;;;;;3.60;3.40;;;11.20;99.90;;;;;;10344583;28;20222;-80
2022/02/03 15:26:33;;;;;;;4.10;3.70;;;11.10;99.90;;;;;;10349970;28;20246;-81
2022/02/03 15:31:35;;;;;;;4.53;4.13;;;11.10;99.90;;;;;;10348402;28;20612;-81
2022/02/03 15:36:38;;;;;;;3.83;3.53;;;11.00;99.90;;;;;;10342537;28;20195;-81
2022/02/03 15:41:43;;;;;;;3.67;3.37;;;11.00;99.90;;;;;;10341459;28;20287;-81
2022/02/03 15:46:58;;;;;;;3.33;3.03;;;11.00;99.90;;;;;;10338011;28;20219;-80
2022/02/03 16:03:11;;;;;;;7.20;3.63;;;10.80;99.90;;;;;;10337073;28;20238;-81
2022/02/03 16:14:06;;;;;;;5.93;3.63;;;10.70;99.90;;;;;;10341602;28;20725;-81
2022/02/03 16:19:03;;;;;;;2.90;2.77;;;10.60;99.90;;;;;;10341048;28;20190;-81
2022/02/03 16:50:59;;;;;;;3.70;3.50;;;10.20;99.90;;;;;;10342143;28;20258;-81
2022/02/03 16:56:06;;;;;;;4.13;3.83;;;10.10;99.90;;;;;;10342090;28;20203;-81
2022/02/03 17:01:09;;;;;;;3.70;3.40;;;10.10;99.90;;;;;;10338267;28;20687;-82
2022/02/03 17:06:33;;;;;;;3.93;3.63;;;10.10;99.90;;;;;;10338913;28;20234;-83
2022/02/03 17:11:38;;;;;;;3.47;3.27;;;10.10;99.90;;;;;;10326637;28;20236;-84
2022/02/03 17:16:41;;;;;;;7.00;5.10;;;10.10;99.90;;;;;;10319364;28;20211;-83
2022/02/03 17:21:44;;;;;;;6.07;4.93;;;10.00;99.90;;;;;;10329193;28;20251;-80
2022/02/03 17:26:55;;;;;;;5.60;5.10;;;10.00;99.90;;;;;;10317851;28;20231;-81
2022/02/03 17:32:06;;;;;;;5.97;5.00;;;9.90;99.90;;;;;;10281145;28;20253;-82
2022/02/03 18:09:34;;;;;;;6.13;5.67;;;9.70;99.90;;;;;;10324961;28;20555;-81
2022/02/03 18:30:50;;;;;;;11.50;7.37;;;9.60;99.90;;;;;;10325403;28;20701;-81
2022/02/03 18:36:05;;;;;;;7.07;6.30;;;9.50;99.90;;;;;;10324079;28;20198;-82
2022/02/03 18:52:06;;;;;;;10.23;7.13;;;9.30;99.90;;;;;;10333833;28;20310;-81
2022/02/03 18:57:20;;;;;;;7.60;6.33;;;9.20;99.90;;;;;;10311153;28;20768;-81
2022/02/03 19:02:59;;;;;;;5.13;4.70;;;9.20;99.90;;;;;;10351352;28;20277;-81
2022/02/03 20:07:01;;;;;;;14.57;12.40;;;8.60;99.90;;;;;;10320918;28;20589;-81
2022/02/03 20:12:11;;;;;;;10.50;9.60;;;8.50;99.90;;;;;;10351428;28;20222;-82
2022/02/03 20:17:18;;;;;;;11.27;10.27;;;8.40;99.90;;;;;;10336675;28;20627;-83
2022/02/03 20:22:32;;;;;;;10.87;9.93;;;8.40;99.90;;;;;;10336470;28;20246;-83
2022/02/03 20:27:46;;;;;;;11.70;10.57;;;8.40;99.90;;;;;;10353389;28;20200;-82
2022/02/03 20:32:48;;;;;;;12.47;11.47;;;8.30;99.90;;;;;;10338202;28;20575;-82
2022/02/03 20:37:50;;;;;;;12.00;10.90;;;8.30;99.90;;;;;;10334150;28;20244;-81
2022/02/03 20:42:54;;;;;;;14.77;13.37;;;8.30;99.90;;;;;;10348988;28;20222;-81
2022/02/03 20:47:56;;;;;;;14.07;12.83;;;8.20;99.90;;;;;;10353536;28;20203;-81
2022/02/03 20:52:58;;;;;;;12.97;11.83;;;8.20;99.90;;;;;;10350829;28;20231;-81
2022/02/03 20:58:02;;;;;;;11.90;10.90;;;8.20;99.90;;;;;;10339732;28;20210;-81
2022/02/03 21:03:08;;;;;;;12.57;11.37;;;8.10;99.90;;;;;;10351786;28;20267;-81
2022/02/03 21:08:11;;;;;;;11.80;10.77;;;8.10;99.90;;;;;;10341321;28;20195;-80
2022/02/03 21:13:15;;;;;;;13.17;11.03;;;8.10;99.90;;;;;;10324383;28;20223;-80
2022/02/03 21:18:18;;;;;;;12.00;10.87;;;8.10;99.90;;;;;;10336614;28;20203;-80
2022/02/03 21:23:21;;;;;;;15.07;12.00;;;8.00;99.90;;;;;;10342188;28;20265;-80
2022/02/03 21:28:27;;;;;;;14.03;12.83;;;8.00;99.90;;;;;;10343146;28;20214;-81
2022/02/03 21:33:32;;;;;;;13.80;12.60;;;8.00;99.90;;;;;;10320727;28;20254;-82
2022/02/03 21:38:35;;;;;;;14.30;13.00;;;8.00;99.90;;;;;;10342978;28;20195;-83
2022/02/03 21:43:39;;;;;;;14.53;13.10;;;8.00;99.90;;;;;;10330464;28;20684;-81
2022/02/03 21:48:47;;;;;;;15.10;13.80;;;8.00;99.90;;;;;;10336440;28;20217;-81
2022/02/03 21:53:50;;;;;;;15.50;14.10;;;8.00;99.90;;;;;;10337635;28;20281;-80
2022/02/03 21:58:56;;;;;;;14.97;13.63;;;8.00;99.90;;;;;;10293478;28;20656;-80
2022/02/03 22:03:58;;;;;;;14.27;13.07;;;8.00;99.90;;;;;;10306601;28;20235;-80
2022/02/03 22:09:00;;;;;;;14.43;12.93;;;8.00;99.90;;;;;;10299728;28;20378;-79
2022/02/03 22:14:09;;;;;;;12.70;11.60;;;8.00;99.90;;;;;;10310638;28;20234;-80
2022/02/03 22:19:12;;;;;;;12.70;11.57;;;8.00;99.90;;;;;;10316132;28;20200;-80
2022/02/03 22:24:30;;;;;;;12.20;11.10;;;8.00;99.90;;;;;;10303173;28;20751;-81
2022/02/03 22:45:55;;;;;;;13.67;12.47;;;8.00;99.90;;;;;;10339514;28;20297;-80
2022/02/03 22:50:58;;;;;;;13.73;12.50;;;8.00;99.90;;;;;;10333307;28;20234;-80
2022/02/03 22:56:01;;;;;;;13.83;12.53;;;8.00;99.90;;;;;;10315459;28;20283;-80
2022/02/03 23:01:08;;;;;;;14.60;13.10;;;8.00;99.90;;;;;;10329666;28;20215;-80
2022/02/03 23:06:12;;;;;;;13.70;12.40;;;8.00;99.90;;;;;;10328474;28;20617;-80
2022/02/03 23:11:28;;;;;;;13.37;12.00;;;8.00;99.90;;;;;;10330743;28;20738;-79
2022/02/03 23:16:43;;;;;;;14.20;12.80;;;8.00;99.90;;;;;;10330058;28;20191;-79
2022/02/03 23:21:51;;;;;;;14.30;12.80;;;7.90;99.90;;;;;;10312498;28;20228;-80
2022/02/03 23:27:02;;;;;;;14.20;13.00;;;7.80;99.90;;;;;;10334890;28;20234;-80
2022/02/03 23:32:09;;;;;;;15.00;13.53;;;7.90;99.90;;;;;;10302436;28;20231;-79
2022/02/03 23:37:11;;;;;;;13.43;12.23;;;7.90;99.90;;;;;;10325069;28;20625;-80
2022/02/03 23:48:35;;;;;;;13.80;12.50;;;8.00;99.90;;;;;;10328091;28;20579;-81
